Terminal Aerodrome Forecast
Issued by NWS Atlanta, GA

Home | Current Version | Previous Version | Text Only | Print | Product List | Glossary On
Versions: 1 2 3 4 5 6 7 8 9 10 11 12 13 14 15 16 17 18 19 20 21 22 23 24 25 26 27
598
FTUS42 KFFC 232331
TAFAHN
TAF
KAHN 232331Z 2400/2424 12006KT P6SM BKN045
     FM240800 10006KT P6SM BKN025 BKN050
     FM241600 09008KT P6SM BKN040
     FM242200 13010KT P6SM SCT050 BKN120=

USA.gov is the U.S. government's official web portal to all federal, state and local government web resources and services.